createdAt,value
2018-02-17T10:28:44.054Z,6.33
2018-02-17T10:28:44.636Z,6.43
2018-02-17T10:28:45.233Z,6.48
2018-02-17T10:28:45.830Z,6.47
2018-02-17T10:28:46.384Z,6.50
2018-02-17T10:28:46.996Z,6.51
2018-02-17T10:28:47.587Z,6.50
2018-02-17T10:29:41.145Z,6.44
2018-02-17T10:29:41.745Z,6.51
2018-02-17T10:29:42.344Z,6.36
2018-02-17T10:29:42.962Z,6.51
2018-02-17T10:29:43.543Z,6.47
2018-02-17T10:29:44.142Z,6.50
2018-02-17T10:29:44.741Z,6.50
2018-02-17T10:29:45.341Z,6.47
2018-02-17T10:30:39.414Z,6.53
2018-02-17T10:30:40.007Z,6.53
2018-02-17T10:30:40.607Z,6.53
2018-02-17T10:30:41.208Z,6.59
2018-02-17T10:30:41.811Z,6.51
2018-02-17T10:30:42.406Z,6.51
2018-02-17T10:30:43.006Z,6.53
2018-02-17T10:31:37.098Z,6.53
2018-02-17T10:31:37.663Z,6.59
2018-02-17T10:31:38.263Z,6.51
2018-02-17T10:31:38.862Z,6.51
2018-02-17T10:31:39.462Z,6.50
2018-02-17T10:31:40.062Z,6.56
2018-02-17T10:31:40.662Z,6.56
2018-02-17T10:32:34.711Z,6.47
2018-02-17T10:32:35.311Z,6.51
2018-02-17T10:32:35.910Z,6.53
2018-02-17T10:32:36.510Z,6.46
2018-02-17T10:32:37.114Z,6.47
2018-02-17T10:32:37.712Z,6.44
2018-02-17T10:32:38.309Z,6.47
2018-02-17T10:33:33.290Z,6.44
2018-02-17T10:33:33.886Z,6.51
2018-02-17T10:33:34.482Z,6.53
2018-02-17T10:33:35.083Z,6.44
2018-02-17T10:33:35.684Z,6.43
2018-02-17T10:33:36.281Z,6.50
2018-02-17T10:34:30.836Z,6.58
2018-02-17T10:34:31.432Z,6.58
2018-02-17T10:34:32.033Z,6.54
2018-02-17T10:34:32.632Z,6.58
2018-02-17T10:34:33.234Z,6.54
2018-02-17T10:34:33.832Z,6.62
2018-02-17T10:34:34.432Z,6.61
2018-02-17T10:35:28.545Z,6.68
2018-02-17T10:35:29.161Z,6.66
2018-02-17T10:35:29.723Z,6.61
2018-02-17T10:35:30.365Z,6.63
2018-02-17T10:35:30.955Z,6.73
2018-02-17T10:35:31.524Z,6.68
2018-02-17T10:35:32.125Z,6.63
2018-02-17T10:36:26.144Z,6.69
2018-02-17T10:36:26.737Z,6.73
2018-02-17T10:36:27.340Z,6.66
2018-02-17T10:36:27.942Z,6.71
2018-02-17T10:36:28.541Z,6.68
2018-02-17T10:36:29.137Z,6.73
2018-02-17T10:36:29.735Z,6.76
2018-02-17T10:37:23.817Z,6.71
2018-02-17T10:37:24.388Z,6.84
2018-02-17T10:37:24.991Z,6.84
2018-02-17T10:37:25.588Z,6.89
2018-02-17T10:37:26.191Z,6.86
2018-02-17T10:37:26.787Z,6.89
2018-02-17T10:37:27.389Z,6.86
2018-02-17T10:38:21.444Z,6.97
2018-02-17T10:38:22.041Z,6.95
2018-02-17T10:38:22.641Z,6.99
2018-02-17T10:38:23.240Z,6.91
2018-02-17T10:38:23.841Z,6.91
2018-02-17T10:38:24.440Z,6.95
2018-02-17T10:38:25.039Z,7.05
2018-02-17T10:39:19.094Z,6.95
2018-02-17T10:39:19.692Z,7.02
2018-02-17T10:39:20.292Z,6.95
2018-02-17T10:39:20.892Z,6.94
2018-02-17T10:39:21.494Z,7.09
2018-02-17T10:39:22.090Z,6.98
2018-02-17T10:39:22.690Z,6.99
2018-02-17T10:40:16.746Z,7.09
2018-02-17T10:40:17.345Z,7.08
2018-02-17T10:40:17.944Z,7.16
2018-02-17T10:40:18.542Z,7.12
2018-02-17T10:40:19.144Z,7.16
2018-02-17T10:40:19.744Z,7.13
2018-02-17T10:40:20.342Z,7.07
2018-02-17T10:41:14.399Z,7.19
2018-02-17T10:41:14.995Z,7.19
2018-02-17T10:41:15.594Z,7.23
2018-02-17T10:41:16.193Z,7.15
2018-02-17T10:41:16.796Z,7.20
2018-02-17T10:41:17.395Z,7.20
2018-02-17T10:41:17.992Z,7.22
2018-02-17T10:42:12.062Z,7.34
2018-02-17T10:42:12.647Z,7.31
2018-02-17T10:42:13.247Z,7.31
2018-02-17T10:42:13.846Z,7.37
2018-02-17T10:42:14.446Z,7.32
2018-02-17T10:42:15.047Z,7.32
2018-02-17T10:42:15.647Z,7.37
2018-02-17T11:11:33.474Z,8.20
2018-02-17T11:11:34.039Z,8.22
2018-02-17T11:11:34.637Z,8.26
2018-02-17T11:11:35.235Z,8.22
2018-02-17T11:11:35.839Z,8.26
2018-02-17T11:11:36.435Z,8.26
2018-02-17T11:11:37.037Z,8.26
2018-02-17T11:12:51.061Z,8.14
2018-02-17T11:12:51.658Z,8.14
2018-02-17T11:12:52.258Z,8.15
2018-02-17T11:12:52.858Z,8.12
2018-02-17T11:12:53.457Z,8.15
2018-02-17T11:12:54.057Z,8.20
2018-02-17T11:12:54.657Z,8.17
2018-02-17T11:13:48.714Z,7.96
2018-02-17T11:13:49.311Z,8.08
2018-02-17T11:13:49.910Z,8.03
2018-02-17T11:13:50.511Z,7.97
2018-02-17T11:13:51.109Z,8.12
2018-02-17T11:13:51.709Z,8.10
2018-02-17T11:13:52.310Z,8.10
2018-02-17T11:14:46.367Z,7.79
2018-02-17T11:14:46.963Z,7.82
2018-02-17T11:14:47.567Z,7.82
2018-02-17T11:14:48.162Z,7.79
2018-02-17T11:14:48.762Z,7.79
2018-02-17T11:14:49.367Z,7.82
2018-02-17T11:14:49.963Z,7.78
2018-02-17T11:15:43.514Z,7.71
2018-02-17T11:15:44.105Z,7.75
2018-02-17T11:15:44.703Z,7.74
2018-02-17T11:15:45.303Z,7.71
2018-02-17T11:15:45.905Z,7.74
2018-02-17T11:15:46.504Z,7.78
2018-02-17T11:15:47.102Z,7.72
2018-02-17T11:15:47.703Z,7.72
2018-02-17T11:16:41.694Z,7.60
2018-02-17T11:16:42.271Z,7.66
2018-02-17T11:16:42.867Z,7.66
2018-02-17T11:16:43.467Z,7.62
2018-02-17T11:16:44.073Z,7.62
2018-02-17T11:16:44.668Z,7.66
2018-02-17T11:16:45.265Z,7.62
2018-02-17T11:17:59.291Z,7.50
2018-02-17T11:17:59.887Z,7.53
2018-02-17T11:18:00.486Z,7.53
2018-02-17T11:18:01.087Z,7.53
2018-02-17T11:18:01.686Z,7.53
2018-02-17T11:18:02.306Z,7.56
2018-02-17T11:18:02.886Z,7.53
2018-02-17T11:18:56.943Z,7.41
2018-02-17T11:18:57.541Z,7.45
2018-02-17T11:18:58.141Z,7.42
2018-02-17T11:18:58.740Z,7.44
2018-02-17T11:18:59.342Z,7.37
2018-02-17T11:18:59.938Z,7.41
2018-02-17T11:19:00.538Z,7.44
2018-02-17T11:19:54.593Z,7.31
2018-02-17T11:19:55.191Z,7.37
2018-02-17T11:19:55.791Z,7.24
2018-02-17T11:19:56.391Z,7.34
2018-02-17T11:19:56.998Z,7.31
2018-02-17T11:19:57.592Z,7.26
2018-02-17T11:19:58.189Z,7.23
2018-02-17T11:20:52.249Z,7.32
2018-02-17T11:20:52.842Z,7.31
2018-02-17T11:20:53.447Z,7.35
2018-02-17T11:20:54.042Z,7.34
2018-02-17T11:20:54.644Z,7.38
2018-02-17T11:20:55.244Z,7.24
2018-02-17T11:20:55.845Z,7.37
2018-02-17T11:21:49.929Z,7.37
2018-02-17T11:21:50.540Z,7.41
2018-02-17T11:21:51.094Z,7.41
2018-02-17T11:21:51.693Z,7.34
2018-02-17T11:21:52.296Z,7.37
2018-02-17T11:21:52.905Z,7.40
2018-02-17T11:21:53.497Z,7.41
2018-02-17T11:22:47.548Z,7.31
2018-02-17T11:22:48.146Z,7.29
2018-02-17T11:22:48.746Z,7.29
2018-02-17T11:22:49.348Z,7.37
2018-02-17T11:22:49.947Z,7.34
2018-02-17T11:22:50.548Z,7.34
2018-02-17T11:22:51.145Z,7.29
2018-02-17T11:23:45.213Z,7.27
2018-02-17T11:23:45.839Z,7.34
2018-02-17T11:23:46.401Z,7.32
2018-02-17T11:23:47.038Z,7.37
2018-02-17T11:23:47.647Z,7.29
2018-02-17T11:23:48.231Z,7.32
2018-02-17T11:23:48.841Z,7.35
2018-02-17T11:40:33.280Z,9.09
2018-02-17T11:40:33.832Z,8.96
2018-02-17T11:40:34.428Z,8.97
2018-02-17T11:40:35.032Z,8.99
2018-02-17T11:40:35.627Z,8.93
2018-02-17T11:40:36.228Z,9.01
2018-02-17T11:40:36.828Z,9.01
2018-02-17T11:41:30.888Z,8.60
2018-02-17T11:41:31.479Z,8.63
2018-02-17T11:41:32.079Z,8.54
2018-02-17T11:41:32.680Z,8.63
2018-02-17T11:41:33.280Z,8.58
2018-02-17T11:41:33.879Z,8.60
2018-02-17T11:41:34.478Z,8.60
2018-02-17T11:42:28.535Z,8.65
2018-02-17T11:42:29.133Z,8.63
2018-02-17T11:42:29.732Z,8.71
2018-02-17T11:42:30.332Z,8.73
2018-02-17T11:42:30.936Z,8.57
2018-02-17T11:42:31.530Z,8.73
2018-02-17T11:42:32.132Z,8.69
2018-02-17T11:43:26.187Z,8.79
2018-02-17T11:43:26.785Z,8.78
2018-02-17T11:43:27.384Z,8.83
2018-02-17T11:43:27.995Z,8.79
2018-02-17T11:43:28.587Z,8.81
2018-02-17T11:43:29.184Z,8.68
2018-02-17T11:43:29.791Z,8.71
2018-02-17T11:44:23.841Z,8.66
2018-02-17T11:44:24.437Z,8.69
2018-02-17T11:44:25.037Z,8.68
2018-02-17T11:44:25.637Z,8.69
2018-02-17T11:44:26.237Z,8.66
2018-02-17T11:44:26.836Z,8.68
2018-02-17T11:44:27.446Z,8.73
2018-02-17T11:45:21.524Z,8.66
2018-02-17T11:45:22.088Z,8.69
2018-02-17T11:45:22.689Z,8.72
2018-02-17T11:45:23.289Z,8.68
2018-02-17T11:45:23.890Z,8.69
2018-02-17T11:45:24.488Z,8.72
2018-02-17T11:45:25.087Z,8.68
2018-02-17T11:46:19.148Z,8.79
2018-02-17T11:46:19.742Z,8.68
2018-02-17T11:46:20.342Z,8.65
2018-02-17T11:46:20.945Z,8.69
2018-02-17T11:46:21.540Z,8.69
2018-02-17T11:46:22.140Z,8.73
2018-02-17T11:46:22.761Z,8.66
2018-02-17T11:47:16.797Z,8.81
2018-02-17T11:47:17.394Z,8.83
2018-02-17T11:47:17.993Z,8.79
2018-02-17T11:47:18.591Z,8.75
2018-02-17T11:47:19.201Z,8.78
2018-02-17T11:47:19.794Z,8.69
2018-02-17T11:47:20.395Z,8.69
2018-02-17T11:48:15.371Z,8.86
2018-02-17T11:48:15.969Z,8.87
2018-02-17T11:48:16.572Z,8.96
2018-02-17T11:48:17.166Z,8.87
2018-02-17T11:48:17.768Z,8.91
2018-02-17T11:48:18.365Z,8.88
2018-02-17T11:49:13.944Z,8.83
2018-02-17T11:49:14.542Z,8.86
2018-02-17T11:49:15.144Z,8.81
2018-02-17T11:49:15.741Z,8.76
2018-02-17T11:49:16.346Z,8.79
2018-02-17T11:49:16.944Z,8.86
2018-02-17T11:50:10.988Z,8.79
2018-02-17T11:50:11.582Z,8.75
2018-02-17T11:50:12.179Z,8.81
2018-02-17T11:50:12.780Z,8.72
2018-02-17T11:50:13.378Z,8.69
2018-02-17T11:50:13.979Z,8.87
2018-02-17T11:50:14.582Z,8.79
2018-02-17T11:50:15.185Z,8.78
2018-02-17T11:51:09.279Z,8.78
2018-02-17T11:51:09.843Z,8.81
2018-02-17T11:51:10.444Z,8.79
2018-02-17T11:51:11.047Z,8.79
2018-02-17T11:51:11.644Z,8.76
2018-02-17T11:51:12.244Z,8.81
2018-02-17T11:51:12.840Z,8.83
2018-02-17T11:52:06.900Z,8.68
2018-02-17T11:52:07.495Z,8.63
2018-02-17T11:52:08.095Z,8.65
2018-02-17T11:52:08.694Z,8.65
2018-02-17T11:52:09.297Z,8.63
2018-02-17T11:52:09.893Z,8.68
2018-02-17T11:52:10.495Z,8.73
2018-02-17T11:53:04.550Z,8.60
2018-02-17T11:53:05.148Z,8.63
2018-02-17T11:53:05.747Z,8.71
2018-02-17T11:53:06.346Z,8.69
2018-02-17T11:53:06.949Z,8.71
2018-02-17T11:53:07.548Z,8.63
2018-02-17T11:53:08.146Z,8.62
2018-02-17T11:54:02.203Z,8.73
2018-02-17T11:54:02.798Z,8.66
2018-02-17T11:54:03.398Z,8.66
2018-02-17T11:54:03.999Z,8.72
2018-02-17T11:54:04.599Z,8.69
2018-02-17T11:54:05.202Z,8.73
2018-02-17T11:54:05.798Z,8.71
2018-02-17T11:54:59.853Z,8.83
2018-02-17T11:55:00.451Z,8.75
2018-02-17T11:55:01.050Z,8.73
2018-02-17T11:55:01.650Z,8.81
2018-02-17T11:55:02.253Z,8.81
2018-02-17T11:55:02.850Z,8.83
2018-02-17T11:55:03.450Z,8.81
2018-02-17T11:55:57.506Z,8.73
2018-02-17T11:55:58.116Z,8.90
2018-02-17T11:55:58.703Z,8.94
2018-02-17T11:55:59.306Z,8.91
2018-02-17T11:55:59.903Z,8.75
2018-02-17T11:56:00.507Z,8.87
2018-02-17T11:56:01.102Z,8.87
2018-02-17T11:56:55.198Z,8.83
2018-02-17T11:56:55.759Z,8.78
2018-02-17T11:56:56.360Z,8.79
2018-02-17T11:56:56.961Z,8.88
2018-02-17T11:56:57.567Z,8.78
2018-02-17T11:56:58.184Z,8.88
2018-02-17T11:56:58.769Z,8.86
2018-02-17T11:57:52.823Z,8.87
2018-02-17T11:57:53.409Z,8.91
2018-02-17T11:57:54.008Z,8.83
2018-02-17T11:57:54.610Z,8.87
2018-02-17T11:57:55.211Z,8.84
2018-02-17T11:57:55.809Z,8.94
2018-02-17T11:57:56.415Z,8.84
2018-02-17T11:58:50.565Z,9.01
2018-02-17T11:58:51.076Z,8.99
2018-02-17T11:58:51.692Z,9.02
2018-02-17T11:58:52.360Z,9.02
2018-02-17T11:58:52.930Z,8.96
2018-02-17T11:58:53.580Z,9.01
2018-02-17T11:58:54.138Z,9.02
2018-02-17T11:59:48.211Z,9.01
2018-02-17T11:59:48.721Z,9.01
2018-02-17T11:59:49.317Z,8.96
2018-02-17T11:59:49.929Z,8.97
2018-02-17T11:59:50.521Z,9.02
2018-02-17T11:59:51.118Z,9.01
2018-02-17T11:59:51.716Z,9.02
2018-02-17T12:00:45.767Z,8.79
2018-02-17T12:00:46.361Z,8.88
2018-02-17T12:00:46.962Z,8.88
2018-02-17T12:00:47.560Z,8.88
2018-02-17T12:00:48.162Z,8.83
2018-02-17T12:00:48.761Z,8.90
2018-02-17T12:00:49.360Z,8.87
2018-02-17T12:01:43.501Z,8.94
2018-02-17T12:01:44.017Z,8.97
2018-02-17T12:01:44.613Z,9.02
2018-02-17T12:01:45.213Z,9.04
2018-02-17T12:01:45.816Z,8.97
2018-02-17T12:01:46.412Z,9.05
2018-02-17T12:01:47.013Z,9.02
2018-02-17T12:02:41.101Z,9.05
2018-02-17T12:02:41.665Z,9.12
2018-02-17T12:02:42.266Z,9.12
2018-02-17T12:02:42.866Z,9.06
2018-02-17T12:02:43.465Z,9.10
2018-02-17T12:02:44.065Z,9.10
2018-02-17T12:02:44.663Z,9.18
2018-02-17T12:03:38.720Z,8.97
2018-02-17T12:03:39.315Z,9.01
2018-02-17T12:03:39.919Z,9.02
2018-02-17T12:03:40.515Z,8.93
2018-02-17T12:03:41.114Z,8.97
2018-02-17T12:03:41.715Z,9.02
2018-02-17T12:03:42.320Z,8.97
2018-02-17T12:04:36.371Z,8.79
2018-02-17T12:04:36.969Z,8.79
2018-02-17T12:04:37.568Z,8.75
2018-02-17T12:04:38.171Z,8.79
2018-02-17T12:04:38.767Z,8.83
2018-02-17T12:04:39.372Z,8.75
2018-02-17T12:04:39.967Z,8.79
2018-02-17T12:05:34.410Z,8.73
2018-02-17T12:05:34.811Z,8.83
2018-02-17T12:05:35.398Z,8.86
2018-02-17T12:05:35.955Z,8.84
2018-02-17T12:05:36.549Z,8.88
2018-02-17T12:05:37.290Z,8.83
2018-02-17T12:05:37.795Z,8.86
2018-02-17T12:06:31.880Z,8.84
2018-02-17T12:06:32.478Z,8.87
2018-02-17T12:06:33.079Z,8.87
2018-02-17T12:06:33.678Z,8.88
2018-02-17T12:06:34.276Z,8.91
2018-02-17T12:06:34.876Z,8.88
2018-02-17T12:06:35.478Z,8.93
2018-02-17T12:07:29.639Z,8.93
2018-02-17T12:07:30.236Z,9.01
2018-02-17T12:07:30.836Z,8.97
2018-02-17T12:07:31.436Z,8.96
2018-02-17T12:07:32.037Z,9.01
2018-02-17T12:07:32.636Z,8.97
2018-02-17T12:07:33.236Z,8.97
2018-02-17T12:23:47.684Z,8.75
2018-02-17T12:23:48.256Z,8.90
2018-02-17T12:23:48.854Z,8.86
2018-02-17T12:23:49.455Z,8.83
2018-02-17T12:23:50.064Z,8.75
2018-02-17T12:23:50.658Z,8.86
2018-02-17T12:23:51.254Z,8.79
2018-02-17T12:24:45.313Z,8.68
2018-02-17T12:24:45.908Z,8.68
2018-02-17T12:24:46.513Z,8.78
2018-02-17T12:24:47.109Z,8.72
2018-02-17T12:24:47.710Z,8.69
2018-02-17T12:24:48.306Z,8.68
2018-02-17T12:24:48.908Z,8.83
2018-02-17T12:25:42.997Z,8.60
2018-02-17T12:25:43.561Z,8.65
2018-02-17T12:25:44.162Z,8.57
2018-02-17T12:25:44.762Z,8.69
2018-02-17T12:25:45.368Z,8.66
2018-02-17T12:25:45.960Z,8.71
2018-02-17T12:25:46.560Z,8.68
2018-02-17T12:26:40.654Z,8.48
2018-02-17T12:26:41.220Z,8.54
2018-02-17T12:26:41.864Z,8.50
2018-02-17T12:26:42.453Z,8.44
2018-02-17T12:26:43.015Z,8.51
2018-02-17T12:26:43.612Z,8.50
2018-02-17T12:26:44.213Z,8.50
2018-02-17T12:27:38.268Z,8.36
2018-02-17T12:27:38.865Z,8.37
2018-02-17T12:27:39.464Z,8.33
2018-02-17T12:27:40.065Z,8.35
2018-02-17T12:27:40.665Z,8.32
2018-02-17T12:27:41.264Z,8.40
2018-02-17T12:27:41.864Z,8.39
2018-02-17T12:28:35.921Z,8.40
2018-02-17T12:28:36.519Z,8.48
2018-02-17T12:28:37.118Z,8.45
2018-02-17T12:28:37.801Z,8.44
2018-02-17T12:28:38.316Z,8.39
2018-02-17T12:28:38.919Z,8.48
2018-02-17T12:28:39.518Z,8.40
2018-02-17T12:29:33.593Z,8.55
2018-02-17T12:29:34.594Z,8.53
2018-02-17T12:29:35.099Z,8.58
2018-02-17T12:29:35.446Z,8.54
2018-02-17T12:29:36.497Z,8.57
2018-02-17T12:30:50.711Z,8.18
2018-02-17T12:30:51.313Z,8.17
2018-02-17T12:30:51.911Z,8.22
2018-02-17T12:30:52.507Z,8.22
2018-02-17T12:30:53.102Z,8.21
2018-02-17T12:30:53.702Z,8.21
2018-02-17T12:30:54.314Z,8.26
2018-02-17T12:31:48.395Z,8.18
2018-02-17T12:31:48.940Z,8.15
2018-02-17T12:31:49.574Z,8.11
2018-02-17T12:31:50.150Z,8.21
2018-02-17T12:31:50.895Z,8.11
2018-02-17T12:31:51.363Z,8.18
2018-02-17T12:31:51.939Z,8.14
2018-02-17T12:33:00.803Z,8.08
2018-02-17T12:33:01.569Z,8.02
2018-02-17T12:33:01.646Z,8.02
2018-02-17T12:34:17.173Z,8.10
2018-02-17T12:34:17.610Z,8.10
2018-02-17T12:34:18.292Z,8.08
2018-02-17T12:34:19.112Z,8.15
2018-02-17T12:34:19.480Z,8.11
2018-02-17T12:34:20.234Z,8.12
2018-02-17T12:35:14.212Z,8.22
2018-02-17T12:35:14.792Z,8.21
2018-02-17T12:35:15.404Z,8.18
2018-02-17T12:35:15.997Z,8.20
2018-02-17T12:35:16.583Z,8.18
2018-02-17T12:35:17.197Z,8.21
2018-02-17T12:35:17.768Z,8.25
2018-02-17T12:36:11.904Z,8.39
2018-02-17T12:36:12.411Z,8.37
2018-02-17T12:36:13.014Z,8.33
2018-02-17T12:36:13.644Z,8.29
2018-02-17T12:36:14.217Z,8.33
2018-02-17T12:36:14.827Z,8.33
2018-02-17T12:36:15.411Z,8.36
2018-02-17T12:37:09.497Z,8.36
2018-02-17T12:37:10.081Z,8.35
2018-02-17T12:37:10.664Z,8.29
2018-02-17T12:37:11.262Z,8.26
2018-02-17T12:37:11.867Z,8.25
2018-02-17T12:37:12.468Z,8.25
2018-02-17T12:37:13.063Z,8.26
2018-02-17T12:38:07.131Z,8.22
2018-02-17T12:38:07.717Z,8.25
2018-02-17T12:38:08.318Z,8.22
2018-02-17T12:38:08.937Z,8.21
2018-02-17T12:38:09.521Z,8.20
2018-02-17T12:38:10.118Z,8.25
2018-02-17T12:38:10.715Z,8.20
2018-02-17T12:39:04.330Z,8.33
2018-02-17T12:39:04.996Z,8.32
2018-02-17T12:39:05.670Z,8.35
2018-02-17T12:39:06.181Z,8.30
2018-02-17T12:39:06.848Z,8.37
2018-02-17T12:39:07.378Z,8.33
2018-02-17T12:39:08.011Z,8.32
2018-02-17T12:39:08.672Z,8.36
2018-02-17T12:40:02.772Z,8.35
2018-02-17T12:40:03.315Z,8.30
2018-02-17T12:40:03.837Z,8.33
2018-02-17T12:40:04.456Z,8.36
2018-02-17T12:40:05.038Z,8.30
2018-02-17T12:40:05.641Z,8.32
2018-02-17T12:40:06.237Z,8.36
2018-02-17T12:40:59.829Z,8.36
2018-02-17T12:41:00.412Z,8.44
2018-02-17T12:41:00.979Z,8.42
2018-02-17T12:41:01.590Z,8.32
2018-02-17T12:41:02.226Z,8.32
2018-02-17T12:41:02.808Z,8.32
2018-02-17T12:41:03.443Z,8.32
2018-02-17T12:41:03.958Z,8.35
2018-02-17T12:41:57.943Z,8.47
2018-02-17T12:41:58.534Z,8.44
2018-02-17T12:41:59.142Z,8.42
2018-02-17T12:41:59.733Z,8.44
2018-02-17T12:42:00.348Z,8.48
2018-02-17T12:42:00.935Z,8.47
2018-02-17T12:42:01.537Z,8.50
2018-02-17T12:43:14.974Z,8.69
2018-02-17T12:43:15.533Z,8.72
2018-02-17T12:43:16.139Z,8.72
2018-02-17T12:43:16.732Z,8.69
2018-02-17T12:43:17.336Z,8.60
2018-02-17T12:43:17.977Z,8.63
2018-02-17T12:43:18.530Z,8.66
2018-02-17T12:44:12.584Z,8.78
2018-02-17T12:44:13.183Z,8.83
2018-02-17T12:44:13.781Z,8.78
2018-02-17T12:44:14.383Z,8.75
2018-02-17T12:44:15.031Z,8.76
2018-02-17T12:44:15.682Z,8.73
2018-02-17T12:44:16.188Z,8.75
2018-02-17T12:45:10.235Z,8.81
2018-02-17T12:45:10.832Z,8.83
2018-02-17T12:45:11.432Z,8.87
2018-02-17T12:45:12.032Z,8.93
2018-02-17T12:45:12.635Z,8.91
2018-02-17T12:45:13.235Z,8.91
2018-02-17T12:45:13.831Z,8.87
2018-02-17T12:46:07.895Z,8.91
2018-02-17T12:46:08.484Z,8.94
2018-02-17T12:46:09.084Z,8.94
2018-02-17T12:46:09.684Z,8.93
2018-02-17T12:46:10.283Z,8.94
2018-02-17T12:46:10.882Z,8.94
2018-02-17T12:46:11.491Z,8.96
2018-02-17T12:47:05.138Z,8.71
2018-02-17T12:47:05.748Z,8.66
2018-02-17T12:47:06.382Z,8.71
2018-02-17T12:47:06.975Z,8.83
2018-02-17T12:47:07.603Z,8.78
2018-02-17T12:47:08.132Z,8.72
2018-02-17T12:47:08.732Z,8.68
2018-02-17T12:47:09.331Z,8.78
2018-02-17T12:48:03.423Z,8.83
2018-02-17T12:48:04.005Z,8.84
2018-02-17T12:48:04.631Z,8.88
2018-02-17T12:48:05.238Z,8.91
2018-02-17T12:48:05.793Z,8.87
2018-02-17T12:48:06.391Z,8.84
2018-02-17T12:48:06.991Z,8.86
2018-02-17T12:49:01.048Z,8.91
2018-02-17T12:49:01.646Z,8.91
2018-02-17T12:49:02.245Z,8.87
2018-02-17T12:49:02.846Z,8.97
2018-02-17T12:49:03.445Z,8.90
2018-02-17T12:49:04.046Z,8.90
2018-02-17T12:49:04.643Z,8.91
2018-02-17T12:49:59.103Z,8.97
2018-02-17T12:49:59.438Z,9.01
2018-02-17T12:50:00.910Z,9.01
2018-02-17T12:50:01.136Z,8.99
2018-02-17T12:50:01.765Z,8.91
2018-02-17T12:50:02.076Z,8.96
2018-02-17T12:50:02.709Z,8.96
2018-02-17T12:50:57.379Z,8.83
2018-02-17T12:50:57.974Z,8.87
2018-02-17T12:50:58.571Z,8.83
2018-02-17T12:50:59.491Z,8.81
2018-02-17T12:50:59.980Z,8.83
2018-02-17T12:51:00.525Z,8.84
2018-02-17T12:51:01.274Z,8.75
2018-02-17T12:51:55.129Z,8.66
2018-02-17T12:51:55.726Z,8.71
2018-02-17T12:51:56.337Z,8.71
2018-02-17T12:51:57.021Z,8.69
2018-02-17T12:51:57.578Z,8.66
2018-02-17T12:51:58.124Z,8.66
2018-02-17T12:51:58.724Z,8.66
2018-02-17T12:52:53.028Z,8.71
2018-02-17T12:52:53.585Z,8.69
2018-02-17T12:52:54.139Z,8.79
2018-02-17T12:52:54.739Z,8.68
2018-02-17T12:52:55.339Z,8.68
2018-02-17T12:52:55.938Z,8.68
2018-02-17T12:52:56.540Z,8.71
2018-02-17T12:53:50.561Z,8.68
2018-02-17T12:53:51.131Z,8.69
2018-02-17T12:53:51.730Z,8.69
2018-02-17T12:53:52.330Z,8.66
2018-02-17T12:53:52.943Z,8.68
2018-02-17T12:53:53.530Z,8.66
2018-02-17T12:53:54.128Z,8.71
2018-02-17T12:54:48.185Z,8.50
2018-02-17T12:54:48.880Z,8.51
2018-02-17T12:54:49.388Z,8.53
2018-02-17T12:54:49.984Z,8.51
2018-02-17T12:54:50.584Z,8.54
2018-02-17T12:54:51.186Z,8.50
2018-02-17T12:54:51.784Z,8.54
2018-02-17T12:55:45.844Z,8.47
2018-02-17T12:55:46.441Z,8.51
2018-02-17T12:55:47.040Z,8.54
2018-02-17T12:55:47.639Z,8.50
2018-02-17T12:55:48.286Z,8.51
2018-02-17T12:55:48.895Z,8.50
2018-02-17T12:55:49.497Z,8.51
2018-02-17T12:56:54.672Z,8.39
2018-02-17T12:56:55.258Z,8.36
2018-02-17T12:56:55.857Z,8.30
2018-02-17T12:56:56.459Z,8.33
2018-02-17T12:56:57.058Z,8.32
2018-02-17T12:56:57.744Z,8.33
2018-02-17T12:56:58.311Z,8.30
2018-02-17T12:56:58.920Z,8.35
2018-02-17T12:57:52.917Z,8.14
2018-02-17T12:57:53.515Z,8.20
2018-02-17T12:57:54.115Z,8.18
2018-02-17T12:57:54.714Z,8.15
2018-02-17T12:57:55.315Z,8.18
2018-02-17T12:57:55.950Z,8.18
2018-02-17T12:57:56.606Z,8.21
2018-02-17T12:58:50.189Z,8.10
2018-02-17T12:58:50.722Z,8.07
2018-02-17T12:58:51.320Z,8.14
2018-02-17T12:58:51.878Z,8.17
2018-02-17T12:58:52.470Z,8.11
2018-02-17T12:58:53.075Z,8.10
2018-02-17T12:58:53.719Z,8.14
2018-02-17T12:58:54.379Z,8.14
2018-02-17T12:59:48.325Z,8.00
2018-02-17T12:59:48.921Z,8.08
2018-02-17T12:59:49.519Z,8.12
2018-02-17T12:59:50.173Z,8.00
2018-02-17T12:59:50.760Z,8.03
2018-02-17T12:59:51.376Z,8.10
2018-02-17T12:59:51.978Z,7.99
2018-02-17T13:00:45.977Z,7.96
2018-02-17T13:00:46.569Z,7.94
2018-02-17T13:00:47.173Z,7.94
2018-02-17T13:00:47.770Z,7.99
2018-02-17T13:00:48.369Z,8.02
2018-02-17T13:00:48.971Z,7.94
2018-02-17T13:00:49.568Z,8.07
2018-02-17T13:01:43.772Z,8.07
2018-02-17T13:01:44.283Z,8.04
2018-02-17T13:01:44.876Z,8.00
2018-02-17T13:01:45.475Z,7.94
2018-02-17T13:01:46.080Z,7.99
2018-02-17T13:01:46.675Z,7.99
2018-02-17T13:01:47.276Z,7.94
2018-02-17T13:02:40.872Z,8.00
2018-02-17T13:02:41.469Z,8.00
2018-02-17T13:02:42.128Z,7.97
2018-02-17T13:02:42.746Z,7.97
2018-02-17T13:02:43.269Z,8.00
2018-02-17T13:02:43.867Z,8.00
2018-02-17T13:02:44.466Z,8.00
2018-02-17T13:02:45.067Z,7.96
2018-02-17T13:03:39.139Z,7.85
2018-02-17T13:03:39.732Z,7.90
2018-02-17T13:03:40.335Z,7.90
2018-02-17T13:03:40.934Z,7.90
2018-02-17T13:03:41.553Z,7.90
2018-02-17T13:03:42.131Z,7.89
2018-02-17T13:03:42.730Z,7.90
2018-02-17T13:04:36.885Z,7.90
2018-02-17T13:04:37.470Z,7.87
2018-02-17T13:04:38.052Z,7.90
2018-02-17T13:04:38.643Z,7.87
2018-02-17T13:04:39.314Z,7.93
2018-02-17T13:04:39.832Z,7.89
2018-02-17T13:04:40.418Z,7.89
2018-02-17T13:05:34.437Z,7.87
2018-02-17T13:05:35.034Z,7.92
2018-02-17T13:05:35.634Z,7.92
2018-02-17T13:05:36.234Z,7.93
2018-02-17T13:05:36.832Z,7.89
2018-02-17T13:05:37.441Z,7.99
2018-02-17T13:05:38.034Z,7.92
2018-02-17T13:06:32.089Z,7.85
2018-02-17T13:06:32.687Z,7.84
2018-02-17T13:06:33.287Z,7.90
2018-02-17T13:06:33.886Z,7.84
2018-02-17T13:06:34.485Z,7.84
2018-02-17T13:06:35.090Z,7.84
2018-02-17T13:06:35.688Z,7.82
2018-02-17T13:07:29.741Z,7.79
2018-02-17T13:07:30.338Z,7.78
2018-02-17T13:07:30.938Z,7.81
2018-02-17T13:07:31.548Z,7.81
2018-02-17T13:07:32.283Z,7.82
2018-02-17T13:07:32.938Z,7.81
2018-02-17T13:07:33.438Z,7.78
2018-02-17T13:08:27.422Z,7.75
2018-02-17T13:08:28.084Z,7.77
2018-02-17T13:08:28.597Z,7.72
2018-02-17T13:08:29.221Z,7.77
2018-02-17T13:08:29.790Z,7.75
2018-02-17T13:08:30.389Z,7.75
2018-02-17T13:08:30.991Z,7.79
2018-02-17T13:09:25.049Z,7.79
2018-02-17T13:09:25.641Z,7.81
2018-02-17T13:09:26.242Z,7.79
2018-02-17T13:09:26.841Z,7.78
2018-02-17T13:09:27.443Z,7.79
2018-02-17T13:09:28.041Z,7.81
2018-02-17T13:09:28.640Z,7.79
2018-02-17T13:10:22.721Z,7.82
2018-02-17T13:10:23.294Z,7.85
2018-02-17T13:10:23.893Z,7.90
2018-02-17T13:10:24.494Z,7.84
2018-02-17T13:10:25.093Z,7.84
2018-02-17T13:10:25.692Z,7.89
2018-02-17T13:10:26.389Z,7.85
2018-02-17T13:11:20.347Z,7.84
2018-02-17T13:11:20.944Z,7.90
2018-02-17T13:11:21.544Z,7.87
2018-02-17T13:11:22.144Z,7.87
2018-02-17T13:11:22.792Z,7.92
2018-02-17T13:11:23.352Z,7.90
2018-02-17T13:11:23.944Z,7.90
2018-02-17T13:12:18.046Z,7.90
2018-02-17T13:12:18.712Z,7.89
2018-02-17T13:12:19.198Z,7.92
2018-02-17T13:12:19.798Z,7.90
2018-02-17T13:12:20.398Z,7.92
2018-02-17T13:12:20.998Z,7.92
2018-02-17T13:12:21.598Z,7.89
2018-02-17T13:13:15.651Z,7.82
2018-02-17T13:13:16.249Z,7.77
2018-02-17T13:13:16.847Z,7.77
2018-02-17T13:13:17.466Z,7.79
2018-02-17T13:13:18.103Z,7.81
2018-02-17T13:13:18.648Z,7.75
2018-02-17T13:13:19.247Z,7.78
2018-02-17T13:14:13.304Z,7.75
2018-02-17T13:14:13.906Z,7.71
2018-02-17T13:14:14.500Z,7.72
2018-02-17T13:14:15.105Z,7.79
2018-02-17T13:14:15.700Z,7.81
2018-02-17T13:14:16.306Z,7.81
2018-02-17T13:14:16.899Z,7.81
2018-02-17T13:15:11.054Z,7.67
2018-02-17T13:15:11.565Z,7.75
2018-02-17T13:15:12.173Z,7.66
2018-02-17T13:15:12.828Z,7.66
2018-02-17T13:15:13.376Z,7.60
2018-02-17T13:15:14.055Z,7.69
2018-02-17T13:15:14.646Z,7.71
2018-02-17T13:16:08.624Z,7.60
2018-02-17T13:16:09.202Z,7.53
2018-02-17T13:16:09.803Z,7.53
2018-02-17T13:16:10.403Z,7.53
2018-02-17T13:16:11.002Z,7.58
2018-02-17T13:16:11.602Z,7.59
2018-02-17T13:16:12.280Z,7.60
2018-02-17T13:17:06.263Z,7.47
2018-02-17T13:17:06.856Z,7.56
2018-02-17T13:17:07.455Z,7.56
2018-02-17T13:17:08.060Z,7.56
2018-02-17T13:17:08.655Z,7.52
2018-02-17T13:17:09.255Z,7.55
2018-02-17T13:17:10.138Z,7.60
2018-02-17T13:18:15.689Z,7.50
2018-02-17T13:18:16.294Z,7.56
2018-02-17T13:18:16.921Z,7.53
2018-02-17T13:18:17.481Z,7.53
2018-02-17T13:18:18.081Z,7.50
2018-02-17T13:18:18.681Z,7.53
2018-02-17T13:18:19.281Z,7.56
2018-02-17T13:19:32.716Z,7.53
2018-02-17T13:19:33.323Z,7.53
2018-02-17T13:19:33.887Z,7.52
2018-02-17T13:19:34.489Z,7.49
2018-02-17T13:19:35.087Z,7.55
2018-02-17T13:19:35.686Z,7.53
2018-02-17T13:19:36.291Z,7.52
2018-02-17T13:20:30.374Z,7.47
2018-02-17T13:20:30.940Z,7.55